Time;durP1;ratioP1;P1;durP2;ratioP2;P2;SDS_P1;SDS_P2;PMS_P1;PMS_P2;Temp;Humidity;BMP_temperature;BMP_pressure;BME280_temperature;BME280_humidity;BME280_pressure;Samples;Min_cycle;Max_cycle;Signal;HPM_P1;HPM_P2
2021/08/01 00:00:08;;;;;;;7.85;2.20;;;17.70;99.90;;;;;;5057264;28;20029;-83
2021/08/01 00:02:34;;;;;;;5.22;2.15;;;17.70;99.90;;;;;;5056625;28;20390;-86
2021/08/01 00:05:00;;;;;;;16.77;2.08;;;17.60;99.90;;;;;;5082827;28;20632;-86
2021/08/01 00:07:26;;;;;;;10.63;2.28;;;17.60;99.90;;;;;;5078208;28;20060;-85
2021/08/01 00:10:00;;;;;;;8.63;2.15;;;17.40;99.90;;;;;;5074380;28;20054;-83
2021/08/01 00:12:26;;;;;;;6.55;2.58;;;17.40;99.90;;;;;;5074789;28;20020;-83
2021/08/01 00:14:53;;;;;;;9.52;2.47;;;17.30;99.90;;;;;;5074159;28;20009;-83
2021/08/01 00:17:18;;;;;;;5.68;2.38;;;17.60;99.90;;;;;;5075311;28;20021;-82
2021/08/01 00:19:44;;;;;;;5.68;2.60;;;17.10;99.90;;;;;;5057125;28;20024;-83
2021/08/01 00:22:10;;;;;;;6.38;2.50;;;17.20;99.90;;;;;;5075569;28;20078;-82
2021/08/01 00:24:35;;;;;;;6.32;2.00;;;17.10;99.90;;;;;;5074867;28;20058;-82
2021/08/01 00:27:01;;;;;;;5.35;2.00;;;17.20;99.90;;;;;;5074267;28;20032;-83
2021/08/01 00:29:27;;;;;;;7.60;2.10;;;17.20;99.90;;;;;;5074824;28;20031;-82
2021/08/01 00:31:52;;;;;;;4.38;1.95;;;17.10;99.90;;;;;;5073444;28;20120;-83
2021/08/01 00:34:18;;;;;;;4.53;2.20;;;16.60;99.90;;;;;;5074555;28;20020;-83
2021/08/01 00:36:44;;;;;;;4.22;2.00;;;17.10;99.90;;;;;;5071263;28;20456;-82
2021/08/01 00:39:11;;;;;;;5.43;2.35;;;17.00;99.90;;;;;;5094754;28;20028;-83
2021/08/01 00:41:37;;;;;;;6.15;2.15;;;17.40;99.90;;;;;;5094712;28;20020;-83
2021/08/01 00:44:03;;;;;;;7.22;2.42;;;16.80;99.90;;;;;;5076858;28;20058;-82
2021/08/01 00:46:29;;;;;;;7.85;2.28;;;17.00;99.90;;;;;;5075012;28;20031;-83
2021/08/01 00:48:55;;;;;;;5.15;2.20;;;17.00;99.90;;;;;;5094487;28;20043;-82
2021/08/01 00:51:20;;;;;;;5.43;2.30;;;17.40;99.90;;;;;;5076496;28;20020;-83
2021/08/01 00:53:47;;;;;;;5.05;2.30;;;17.00;99.90;;;;;;5072486;28;20042;-82
2021/08/01 00:56:16;;;;;;;6.38;2.75;;;16.90;99.90;;;;;;5076594;28;20024;-82
2021/08/01 00:58:41;;;;;;;6.85;2.25;;;16.90;99.90;;;;;;5075407;28;20024;-83
2021/08/01 01:01:13;;;;;;;6.35;2.30;;;17.60;99.90;;;;;;5094352;28;20035;-83
2021/08/01 01:03:53;;;;;;;;;;;17.30;99.90;;;;;;5095159;28;20427;-83
2021/08/01 01:06:23;;;;;;;6.55;2.50;;;17.10;99.90;;;;;;5075931;28;20276;-84
2021/08/01 01:09:12;;;;;;;5.25;2.35;;;17.10;99.90;;;;;;5075692;28;20028;-83
2021/08/01 01:11:42;;;;;;;6.13;2.50;;;17.10;99.90;;;;;;5075572;28;20484;-84
2021/08/01 01:14:13;;;;;;;7.47;2.60;;;17.00;99.90;;;;;;5090905;28;20033;-84
2021/08/01 01:16:48;;;;;;;7.30;2.58;;;17.10;99.90;;;;;;5072978;28;20020;-84
2021/08/01 01:19:22;;;;;;;8.07;2.53;;;16.80;99.90;;;;;;5072850;28;20082;-84
2021/08/01 01:22:04;;;;;;;7.65;2.60;;;16.70;99.90;;;;;;5073664;28;20029;-83
2021/08/01 01:24:32;;;;;;;7.72;2.50;;;16.80;99.90;;;;;;5056462;28;20033;-84
2021/08/01 01:27:03;;;;;;;5.75;2.33;;;16.80;99.90;;;;;;5055650;28;20484;-84
2021/08/01 01:29:51;;;;;;;6.90;2.45;;;16.80;99.90;;;;;;5073396;28;20025;-85
2021/08/01 01:32:24;;;;;;;7.57;2.45;;;16.80;99.90;;;;;;5069163;28;20020;-85
2021/08/01 01:34:58;;;;;;;4.57;2.58;;;16.80;99.90;;;;;;5071879;28;20111;-85
2021/08/01 01:37:24;;;;;;;8.70;2.97;;;16.90;99.90;;;;;;5065247;28;20730;-85
2021/08/01 01:39:51;;;;;;;6.00;2.55;;;16.90;99.90;;;;;;5075439;28;20055;-85
2021/08/01 01:42:19;;;;;;;7.72;2.67;;;16.80;99.90;;;;;;5075750;28;20024;-84
2021/08/01 01:44:46;;;;;;;6.78;2.72;;;16.80;99.90;;;;;;5080901;28;20070;-85
2021/08/01 01:47:13;;;;;;;5.80;3.00;;;17.10;99.90;;;;;;5073768;28;20107;-84
2021/08/01 01:49:41;;;;;;;6.00;2.38;;;16.80;99.90;;;;;;5071685;28;20025;-85
2021/08/01 01:52:13;;;;;;;5.32;2.80;;;16.90;99.90;;;;;;5072173;28;20031;-85
2021/08/01 01:54:39;;;;;;;5.30;2.75;;;16.80;99.90;;;;;;5070665;28;20020;-84
2021/08/01 01:57:06;;;;;;;5.13;2.85;;;16.90;99.90;;;;;;5071738;28;20042;-85
2021/08/01 01:59:31;;;;;;;8.13;3.20;;;16.70;99.90;;;;;;5073075;28;20047;-85
2021/08/01 02:01:57;;;;;;;6.97;2.92;;;16.80;99.90;;;;;;5072725;28;20107;-85
2021/08/01 02:04:23;;;;;;;5.68;2.70;;;16.70;99.90;;;;;;5071930;28;20035;-85
2021/08/01 02:06:48;;;;;;;5.10;2.85;;;16.70;99.90;;;;;;5089950;28;20500;-84
2021/08/01 02:09:35;;;;;;;6.72;2.63;;;17.20;99.90;;;;;;5093998;28;20024;-85
2021/08/01 02:12:12;;;;;;;5.63;2.92;;;16.70;99.90;;;;;;5076068;28;20559;-84
2021/08/01 02:14:59;;;;;;;7.45;3.10;;;16.60;99.90;;;;;;5075405;28;20672;-85
2021/08/01 02:17:33;;;;;;;7.13;2.85;;;16.50;99.90;;;;;;5076393;28;20028;-85
2021/08/01 02:20:02;;;;;;;5.45;3.00;;;16.30;99.90;;;;;;5093984;28;20066;-85
2021/08/01 02:22:29;;;;;;;7.30;2.95;;;16.40;99.90;;;;;;5090368;28;20029;-84
2021/08/01 02:24:56;;;;;;;6.57;3.10;;;16.90;99.90;;;;;;5055265;28;20028;-85
2021/08/01 02:27:23;;;;;;;6.93;3.20;;;16.20;99.90;;;;;;5073092;28;20115;-85
2021/08/01 02:29:50;;;;;;;7.80;3.08;;;16.30;99.90;;;;;;5055008;28;20035;-85
2021/08/01 02:32:18;;;;;;;8.25;3.40;;;16.30;99.90;;;;;;5071941;28;20081;-85
2021/08/01 02:34:44;;;;;;;8.70;3.33;;;16.30;99.90;;;;;;5055457;28;20043;-85
2021/08/01 02:37:12;;;;;;;5.43;3.03;;;16.30;99.90;;;;;;5073352;28;20021;-85
2021/08/01 02:39:39;;;;;;;9.07;3.45;;;16.30;99.90;;;;;;5072959;28;20023;-85
2021/08/01 02:42:08;;;;;;;7.00;3.03;;;16.30;99.90;;;;;;5071875;28;20043;-85
2021/08/01 02:44:37;;;;;;;5.07;2.50;;;16.30;99.90;;;;;;5082549;28;20069;-85
2021/08/01 02:47:08;;;;;;;11.98;2.97;;;16.10;99.90;;;;;;5092045;28;20549;-85
2021/08/01 02:49:42;;;;;;;4.47;2.78;;;16.10;99.90;;;;;;5084493;28;20503;-84
2021/08/01 02:52:11;;;;;;;10.00;3.25;;;16.20;99.90;;;;;;5073321;28;20455;-85
2021/08/01 02:54:39;;;;;;;6.95;2.85;;;16.30;99.90;;;;;;5073445;28;20037;-85
2021/08/01 02:57:10;;;;;;;7.38;3.10;;;16.30;99.90;;;;;;5055365;28;20025;-85
2021/08/01 02:59:36;;;;;;;6.82;3.03;;;16.10;99.90;;;;;;5069978;28;20054;-85
2021/08/01 03:02:02;;;;;;;9.93;3.35;;;16.00;99.90;;;;;;5072405;28;20100;-85
2021/08/01 03:04:28;;;;;;;8.88;3.65;;;15.80;99.90;;;;;;5054622;28;20025;-85
2021/08/01 03:06:54;;;;;;;6.78;2.90;;;16.00;99.90;;;;;;5086946;28;20036;-85
2021/08/01 03:09:20;;;;;;;6.28;2.78;;;15.90;99.90;;;;;;5071938;28;20032;-85
2021/08/01 03:11:46;;;;;;;5.05;3.17;;;15.90;99.90;;;;;;5071158;28;20112;-85
2021/08/01 03:14:13;;;;;;;7.75;3.17;;;16.00;99.90;;;;;;5072484;28;20036;-85
2021/08/01 03:16:39;;;;;;;7.53;3.15;;;16.00;99.90;;;;;;5070134;28;20397;-85
2021/08/01 03:19:04;;;;;;;5.80;2.83;;;15.90;99.90;;;;;;5074428;28;20032;-85
2021/08/01 03:21:30;;;;;;;8.68;4.18;;;15.90;99.90;;;;;;5058361;28;20032;-85
2021/08/01 03:23:56;;;;;;;10.43;3.47;;;15.90;99.90;;;;;;5076316;28;20370;-85
2021/08/01 03:26:21;;;;;;;7.93;3.20;;;16.60;99.90;;;;;;5073472;28;20029;-85
2021/08/01 03:28:47;;;;;;;5.97;3.03;;;16.60;99.90;;;;;;5075297;28;20050;-85
2021/08/01 03:31:13;;;;;;;6.70;3.10;;;15.90;99.90;;;;;;5072416;28;20172;-85
2021/08/01 03:33:38;;;;;;;6.22;3.20;;;15.90;99.90;;;;;;5072876;28;20028;-85
2021/08/01 03:36:04;;;;;;;7.35;3.22;;;16.00;99.90;;;;;;5071901;28;20039;-85
2021/08/01 03:38:30;;;;;;;5.47;3.03;;;15.90;99.90;;;;;;5070953;28;20036;-85
2021/08/01 03:40:56;;;;;;;6.57;3.40;;;16.00;99.90;;;;;;5071978;28;20032;-85
2021/08/01 03:43:22;;;;;;;6.78;2.92;;;15.80;99.90;;;;;;5072418;28;20036;-85
2021/08/01 03:45:47;;;;;;;7.85;3.35;;;16.60;99.90;;;;;;5094089;28;20035;-85
2021/08/01 03:48:13;;;;;;;6.97;3.13;;;16.20;99.90;;;;;;5089783;28;20029;-85
2021/08/01 03:50:38;;;;;;;8.73;3.53;;;15.60;99.90;;;;;;5074269;28;20024;-84
2021/08/01 03:53:04;;;;;;;5.70;3.30;;;15.30;99.90;;;;;;5075898;28;20032;-85
2021/08/01 03:55:29;;;;;;;9.38;3.55;;;15.80;99.90;;;;;;5058135;28;20021;-84
2021/08/01 03:57:55;;;;;;;8.05;3.45;;;16.10;99.90;;;;;;5075365;28;20036;-85
2021/08/01 04:00:21;;;;;;;6.55;3.22;;;15.80;99.90;;;;;;5074694;28;20350;-85
2021/08/01 04:02:46;;;;;;;13.02;4.40;;;15.60;99.90;;;;;;5074967;28;20025;-85
2021/08/01 04:05:12;;;;;;;5.72;3.30;;;15.70;99.90;;;;;;5082508;22;20047;-79
2021/08/01 04:07:38;;;;;;;7.70;3.63;;;15.70;99.90;;;;;;5095123;28;20032;-79
2021/08/01 04:10:04;;;;;;;6.38;3.50;;;15.70;99.90;;;;;;5096180;28;20087;-79
2021/08/01 04:12:32;;;;;;;7.85;3.60;;;15.70;99.90;;;;;;5096011;28;20021;-80
2021/08/01 04:14:57;;;;;;;7.20;4.00;;;15.90;99.90;;;;;;5093064;28;20031;-79
2021/08/01 04:17:23;;;;;;;8.60;3.78;;;15.90;99.90;;;;;;5096122;28;20115;-80
2021/08/01 04:19:49;;;;;;;6.72;3.67;;;15.90;99.90;;;;;;5094257;28;20082;-79
2021/08/01 04:22:16;;;;;;;6.65;3.35;;;15.80;99.90;;;;;;5089894;28;20020;-80
2021/08/01 04:24:42;;;;;;;7.30;3.35;;;16.00;99.90;;;;;;5095278;28;20028;-79
2021/08/01 04:27:07;;;;;;;7.13;3.47;;;15.90;99.90;;;;;;5094328;28;20050;-79
2021/08/01 04:29:33;;;;;;;7.07;3.13;;;15.80;99.90;;;;;;5094802;28;20024;-80
2021/08/01 04:32:00;;;;;;;6.68;3.03;;;16.10;99.90;;;;;;5079650;28;20035;-80
2021/08/01 04:34:26;;;;;;;7.45;3.30;;;16.10;99.90;;;;;;5074630;28;20032;-80
2021/08/01 04:36:52;;;;;;;6.18;3.40;;;15.90;99.90;;;;;;5075316;28;20426;-80
2021/08/01 04:39:18;;;;;;;7.97;3.35;;;15.90;99.90;;;;;;5074639;28;20023;-79
2021/08/01 04:41:44;;;;;;;5.63;3.45;;;15.80;99.90;;;;;;5075161;28;20017;-79
2021/08/01 04:44:09;;;;;;;5.93;3.00;;;15.80;99.90;;;;;;5079730;28;20020;-80
2021/08/01 04:46:35;;;;;;;6.63;3.17;;;16.00;99.90;;;;;;5094875;28;20116;-79
2021/08/01 04:49:00;;;;;;;6.35;3.33;;;15.80;99.90;;;;;;5079594;28;20093;-78
2021/08/01 04:51:26;;;;;;;8.75;3.03;;;15.70;99.90;;;;;;5074879;28;20024;-79
2021/08/01 04:53:52;;;;;;;5.20;2.88;;;16.00;99.90;;;;;;5074261;28;20492;-80
2021/08/01 04:56:17;;;;;;;5.40;2.85;;;15.80;99.90;;;;;;5074434;28;20043;-79
2021/08/01 04:58:43;;;;;;;7.03;2.88;;;15.90;99.90;;;;;;5075216;28;20037;-79
2021/08/01 05:01:17;;;;;;;6.15;2.97;;;15.60;99.90;;;;;;5074665;28;20032;-78
2021/08/01 05:03:42;;;;;;;6.68;2.90;;;15.80;99.90;;;;;;5074728;28;20032;-80
2021/08/01 05:06:09;;;;;;;5.95;2.67;;;15.90;99.90;;;;;;5074357;28;20036;-79
2021/08/01 05:08:35;;;;;;;11.85;3.10;;;15.70;99.90;;;;;;5074230;28;20052;-78
2021/08/01 05:11:00;;;;;;;5.60;3.13;;;15.60;99.90;;;;;;5074029;28;20114;-77
2021/08/01 05:13:26;;;;;;;5.38;2.67;;;15.50;99.90;;;;;;5074503;28;20108;-79
2021/08/01 05:15:52;;;;;;;4.40;2.80;;;15.60;99.90;;;;;;5093805;28;20087;-79
2021/08/01 05:18:17;;;;;;;5.70;2.90;;;15.70;99.90;;;;;;5094757;28;20028;-79
2021/08/01 05:20:44;;;;;;;6.43;3.30;;;15.60;99.90;;;;;;5085651;28;20052;-77
2021/08/01 05:23:10;;;;;;;4.97;2.65;;;15.90;99.90;;;;;;5074221;28;20025;-79
2021/08/01 05:25:36;;;;;;;7.70;2.88;;;15.80;99.90;;;;;;5073803;28;20039;-79
2021/08/01 05:28:01;;;;;;;6.70;2.65;;;15.70;99.90;;;;;;5073416;28;20028;-79
2021/08/01 05:30:27;;;;;;;6.82;2.83;;;15.80;99.90;;;;;;5074092;28;20059;-80
2021/08/01 05:32:52;;;;;;;4.93;2.90;;;15.80;99.90;;;;;;5072440;28;20078;-80
2021/08/01 05:35:18;;;;;;;5.90;2.60;;;15.90;99.90;;;;;;5074052;28;20028;-80
2021/08/01 05:37:44;;;;;;;3.97;2.45;;;15.90;99.90;;;;;;5074676;28;20179;-81
2021/08/01 05:40:11;;;;;;;6.03;2.75;;;16.00;99.90;;;;;;5075805;28;20119;-81
2021/08/01 05:42:37;;;;;;;5.03;2.55;;;16.00;99.90;;;;;;5074959;28;20040;-81
2021/08/01 05:45:04;;;;;;;5.80;2.50;;;16.10;99.90;;;;;;5090280;28;20088;-81
2021/08/01 05:47:30;;;;;;;6.07;2.42;;;16.10;99.90;;;;;;5095127;28;20085;-81
2021/08/01 05:49:56;;;;;;;6.43;2.67;;;16.10;99.90;;;;;;5093403;28;20527;-81
2021/08/01 05:52:22;;;;;;;5.60;2.53;;;16.10;99.90;;;;;;5076962;28;20024;-80
2021/08/01 05:54:47;;;;;;;7.38;2.90;;;16.10;99.90;;;;;;5077990;28;20108;-80
2021/08/01 05:57:13;;;;;;;5.65;2.63;;;16.20;99.90;;;;;;5078160;28;20105;-81
2021/08/01 05:59:39;;;;;;;3.85;2.45;;;16.20;99.90;;;;;;5076077;28;20133;-80
2021/08/01 06:02:04;;;;;;;5.15;2.83;;;16.50;99.90;;;;;;5077198;28;20028;-81
2021/08/01 06:04:30;;;;;;;4.97;2.63;;;16.20;99.90;;;;;;5076677;28;20024;-81
2021/08/01 06:06:55;;;;;;;5.45;2.53;;;16.40;99.90;;;;;;5077267;28;20043;-81
2021/08/01 06:09:22;;;;;;;3.90;2.45;;;16.30;99.90;;;;;;5075710;28;20024;-81
2021/08/01 06:11:47;;;;;;;4.93;2.53;;;16.20;99.90;;;;;;5076187;28;20483;-81
2021/08/01 06:14:13;;;;;;;5.57;2.78;;;16.20;99.90;;;;;;5081221;28;20024;-80
2021/08/01 06:16:39;;;;;;;5.18;2.45;;;16.30;99.90;;;;;;5090622;28;20060;-81
2021/08/01 06:19:04;;;;;;;5.43;2.70;;;16.30;99.90;;;;;;5076036;28;20032;-81
2021/08/01 06:21:30;;;;;;;3.72;2.53;;;16.20;99.90;;;;;;5074672;28;20043;-81
2021/08/01 06:23:55;;;;;;;6.35;3.10;;;16.10;99.90;;;;;;5076261;28;20020;-81
2021/08/01 06:26:22;;;;;;;4.68;3.10;;;16.00;99.90;;;;;;5075505;28;20024;-81
2021/08/01 06:28:49;;;;;;;5.68;2.90;;;16.00;99.90;;;;;;5074304;28;20024;-80
2021/08/01 06:31:14;;;;;;;5.97;3.45;;;15.80;99.90;;;;;;5073205;28;20485;-81
2021/08/01 06:33:41;;;;;;;6.10;3.03;;;15.80;99.90;;;;;;5075713;28;20036;-81
2021/08/01 06:36:12;;;;;;;6.93;3.30;;;15.80;99.90;;;;;;5074687;28;20200;-81
2021/08/01 06:38:39;;;;;;;6.00;3.17;;;15.70;99.90;;;;;;5075570;28;20017;-82
2021/08/01 06:41:06;;;;;;;6.65;3.88;;;15.70;99.90;;;;;;5074918;28;20032;-81
2021/08/01 06:43:32;;;;;;;7.20;3.70;;;15.70;99.90;;;;;;5076384;28;20032;-81
2021/08/01 06:45:58;;;;;;;6.93;3.55;;;15.80;99.90;;;;;;5085814;28;20035;-81
2021/08/01 06:48:23;;;;;;;5.82;3.60;;;15.90;99.90;;;;;;5073413;28;20020;-81
2021/08/01 06:50:49;;;;;;;5.90;3.58;;;15.90;99.90;;;;;;5075540;28;20017;-81
2021/08/01 06:53:16;;;;;;;7.45;3.13;;;15.90;99.90;;;;;;5074071;28;20362;-81
2021/08/01 06:55:41;;;;;;;6.35;3.20;;;16.00;99.90;;;;;;5075220;28;20504;-81
2021/08/01 06:58:07;;;;;;;5.07;3.00;;;16.10;99.90;;;;;;5082052;28;20024;-81
2021/08/01 07:00:33;;;;;;;6.15;3.88;;;16.30;99.90;;;;;;5093953;28;20038;-81
2021/08/01 07:03:03;;;;;;;7.82;3.75;;;16.50;99.90;;;;;;5093302;28;20032;-82
2021/08/01 07:05:29;;;;;;;6.55;3.08;;;16.50;99.90;;;;;;5090494;28;20039;-82
2021/08/01 07:07:56;;;;;;;5.68;3.13;;;16.70;99.90;;;;;;5088772;28;20472;-81
2021/08/01 07:10:25;;;;;;;7.18;3.05;;;16.70;99.90;;;;;;5090220;28;20020;-81
2021/08/01 07:12:50;;;;;;;5.68;3.30;;;16.80;99.90;;;;;;5088178;28;20066;-82
2021/08/01 07:15:18;;;;;;;5.32;3.33;;;17.00;99.90;;;;;;5091786;28;20373;-81
2021/08/01 07:17:44;;;;;;;6.38;2.70;;;16.90;99.90;;;;;;5087936;28;20480;-82
2021/08/01 07:20:12;;;;;;;7.53;2.75;;;16.90;99.90;;;;;;5095181;28;20028;-81
2021/08/01 07:22:41;;;;;;;5.07;2.75;;;17.00;99.90;;;;;;5095158;28;20140;-82
2021/08/01 07:25:08;;;;;;;5.90;2.90;;;17.00;99.90;;;;;;5093786;28;20024;-82
2021/08/01 07:27:34;;;;;;;4.88;2.80;;;17.00;99.90;;;;;;5098169;28;20050;-82
2021/08/01 07:30:00;;;;;;;7.25;2.83;;;17.00;99.90;;;;;;5107617;28;20012;-80
2021/08/01 07:32:26;;;;;;;5.22;3.00;;;16.90;99.90;;;;;;5102117;28;20600;-80
2021/08/01 07:34:51;;;;;;;5.68;3.05;;;17.20;99.90;;;;;;5110695;28;20024;-80
2021/08/01 07:37:17;;;;;;;6.65;3.15;;;16.90;99.90;;;;;;5087584;28;20024;-81
2021/08/01 07:39:44;;;;;;;7.38;3.20;;;16.90;99.90;;;;;;5094672;28;20042;-81
2021/08/01 07:42:10;;;;;;;5.78;2.83;;;16.80;99.90;;;;;;5095218;28;20052;-80
2021/08/01 07:44:47;;;;;;;6.05;3.20;;;16.80;99.90;;;;;;5092906;28;20048;-80
2021/08/01 07:47:14;;;;;;;5.18;2.90;;;16.70;99.90;;;;;;5095101;28;20027;-80
2021/08/01 07:49:39;;;;;;;7.68;3.22;;;16.70;99.90;;;;;;5094263;28;20102;-80
2021/08/01 07:52:07;;;;;;;5.38;3.10;;;16.70;99.90;;;;;;5093370;28;20055;-80
2021/08/01 07:54:33;;;;;;;6.57;3.00;;;16.80;99.90;;;;;;5095671;28;20080;-81
2021/08/01 07:56:58;;;;;;;6.03;3.00;;;16.90;99.90;;;;;;5095533;28;20107;-79
2021/08/01 07:59:24;;;;;;;6.78;3.20;;;16.70;99.90;;;;;;5093610;28;20162;-81
2021/08/01 08:01:50;;;;;;;6.88;3.45;;;16.70;99.90;;;;;;5093193;28;20032;-80
2021/08/01 08:04:15;;;;;;;6.50;3.38;;;16.60;99.90;;;;;;5092309;28;20028;-80
2021/08/01 08:06:41;;;;;;;7.10;3.60;;;16.60;99.90;;;;;;5093057;28;20050;-80
2021/08/01 08:09:06;;;;;;;6.13;3.15;;;16.60;99.90;;;;;;5093775;28;20103;-80
2021/08/01 08:11:32;;;;;;;6.55;3.47;;;16.50;99.90;;;;;;5087418;28;20039;-80
2021/08/01 08:13:58;;;;;;;6.95;3.40;;;16.50;99.90;;;;;;5092094;28;20380;-80
2021/08/01 08:16:24;;;;;;;8.13;3.45;;;16.50;99.90;;;;;;5093057;28;20024;-81
2021/08/01 08:18:50;;;;;;;5.13;2.83;;;16.50;99.90;;;;;;5090243;28;20024;-80
2021/08/01 08:21:16;;;;;;;5.57;2.63;;;16.50;99.90;;;;;;5090306;28;20411;-80
2021/08/01 08:23:42;;;;;;;5.43;2.50;;;16.50;99.90;;;;;;5092012;28;20549;-81
2021/08/01 08:26:08;;;;;;;6.90;2.75;;;16.50;99.90;;;;;;5091878;28;20044;-86
2021/08/01 08:28:33;;;;;;;8.15;2.97;;;16.70;99.90;;;;;;5103322;28;20031;-89
2021/08/01 08:30:59;;;;;;;4.50;2.33;;;17.10;99.90;;;;;;5093579;28;20020;-86
2021/08/01 08:33:25;;;;;;;6.07;2.60;;;16.70;99.90;;;;;;5095454;28;20419;-85
2021/08/01 08:35:51;;;;;;;5.32;2.67;;;16.80;99.90;;;;;;5093095;28;20024;-86
2021/08/01 08:38:17;;;;;;;5.00;2.50;;;17.00;99.90;;;;;;5093203;28;20028;-84
2021/08/01 08:40:43;;;;;;;6.38;2.70;;;16.80;99.90;;;;;;5094217;28;20481;-82
2021/08/01 08:43:08;;;;;;;5.35;2.35;;;17.20;99.90;;;;;;5094309;28;20066;-85
2021/08/01 08:45:34;;;;;;;4.43;2.20;;;17.20;99.90;;;;;;5092988;28;20153;-83
2021/08/01 08:48:00;;;;;;;6.40;2.65;;;17.30;99.90;;;;;;5092927;28;20044;-84
2021/08/01 08:50:27;;;;;;;5.88;3.00;;;17.20;99.90;;;;;;5083607;28;20039;-81
2021/08/01 08:53:05;;;;;;;5.70;3.08;;;17.30;99.90;;;;;;5092486;28;20028;-81
2021/08/01 08:55:35;;;;;;;4.85;2.75;;;17.20;99.90;;;;;;5092590;28;20020;-80
2021/08/01 08:58:06;;;;;;;5.18;3.03;;;17.20;99.90;;;;;;5088617;28;20016;-81
2021/08/01 09:00:33;;;;;;;4.80;2.90;;;17.20;99.90;;;;;;5085839;28;20464;-82
2021/08/01 09:02:59;;;;;;;8.55;2.90;;;17.30;99.90;;;;;;5076744;28;20024;-81
2021/08/01 09:05:26;;;;;;;4.18;2.80;;;17.20;99.90;;;;;;5080739;28;20033;-81
2021/08/01 09:07:52;;;;;;;4.50;2.47;;;17.10;99.90;;;;;;5086833;28;20511;-81
2021/08/01 09:10:17;;;;;;;4.40;2.72;;;17.40;99.90;;;;;;5092975;28;20020;-81
2021/08/01 09:12:54;;;;;;;5.40;2.75;;;17.50;99.90;;;;;;5077034;28;20495;-81
2021/08/01 09:15:24;;;;;;;4.43;2.80;;;17.40;99.90;;;;;;5075704;28;20024;-81
2021/08/01 09:17:54;;;;;;;5.10;2.28;;;17.30;99.90;;;;;;5083156;28;20024;-81
2021/08/01 09:20:21;;;;;;;5.35;2.67;;;17.40;99.90;;;;;;5074068;28;20177;-81
2021/08/01 09:22:59;;;;;;;6.03;2.33;;;17.30;99.90;;;;;;5078706;28;20020;-81
2021/08/01 09:25:31;;;;;;;7.07;2.80;;;17.30;99.90;;;;;;5078702;28;20055;-81
2021/08/01 09:28:16;;;;;;;4.25;2.75;;;17.30;99.90;;;;;;5071804;28;20041;-82
2021/08/01 09:30:55;;;;;;;5.93;2.63;;;17.10;99.90;;;;;;5090695;28;20024;-81
2021/08/01 09:33:40;;;;;;;4.53;2.22;;;17.00;99.90;;;;;;5094319;28;20024;-81
2021/08/01 09:36:23;;;;;;;3.80;1.63;;;17.00;99.90;;;;;;5092953;28;20357;-81
2021/08/01 09:39:04;;;;;;;3.45;1.80;;;17.00;99.90;;;;;;5090842;28;20088;-81
2021/08/01 09:41:32;;;;;;;6.32;2.05;;;17.10;99.90;;;;;;5085642;28;20654;-81
2021/08/01 09:44:01;;;;;;;5.30;1.60;;;17.00;99.90;;;;;;5078653;28;20024;-82
2021/08/01 09:46:44;;;;;;;3.97;2.03;;;17.00;99.90;;;;;;5090582;28;20053;-81
2021/08/01 09:49:12;;;;;;;3.80;1.83;;;17.00;99.90;;;;;;5092007;28;20029;-81
2021/08/01 09:51:40;;;;;;;4.57;1.83;;;17.10;99.90;;;;;;5090028;28;20077;-82
2021/08/01 09:54:07;;;;;;;2.75;1.60;;;17.20;99.90;;;;;;5084300;28;20512;-82
2021/08/01 09:56:33;;;;;;;3.58;1.70;;;17.10;99.90;;;;;;5090097;28;20024;-82
2021/08/01 09:59:00;;;;;;;3.25;2.00;;;17.10;99.90;;;;;;5092918;28;20110;-82
2021/08/01 10:01:25;;;;;;;6.07;2.17;;;16.90;99.90;;;;;;5092029;28;20051;-82
2021/08/01 10:03:51;;;;;;;5.68;2.47;;;16.80;99.90;;;;;;5092448;28;20020;-84
2021/08/01 10:06:21;;;;;;;3.67;2.00;;;16.80;99.90;;;;;;5088301;28;20043;-79
2021/08/01 10:08:52;;;;;;;3.97;2.03;;;16.80;99.90;;;;;;5083653;28;20028;-80
2021/08/01 10:11:19;;;;;;;3.83;2.10;;;16.70;99.90;;;;;;5105679;22;20020;-85
2021/08/01 10:13:47;;;;;;;4.30;2.50;;;16.70;99.90;;;;;;5065053;28;20044;-86
2021/08/01 10:16:13;;;;;;;7.40;2.83;;;16.70;99.90;;;;;;5051199;28;20408;-86
2021/08/01 10:18:41;;;;;;;5.55;2.90;;;16.40;99.90;;;;;;5059270;28;20485;-86
2021/08/01 10:21:07;;;;;;;7.03;2.85;;;16.90;99.90;;;;;;5068938;28;20062;-86
2021/08/01 10:23:45;;;;;;;4.28;2.92;;;17.10;99.90;;;;;;5052251;28;20020;-86
2021/08/01 10:26:13;;;;;;;5.97;2.83;;;17.20;99.90;;;;;;5071379;28;20108;-85
2021/08/01 10:28:50;;;;;;;5.97;3.20;;;17.20;99.90;;;;;;5052316;28;20032;-86
2021/08/01 10:31:22;;;;;;;4.20;2.58;;;17.60;99.90;;;;;;5052702;28;20032;-86
2021/08/01 10:33:55;;;;;;;8.38;3.38;;;17.70;99.90;;;;;;5070461;28;20550;-85
2021/08/01 10:36:27;;;;;;;4.47;2.65;;;18.20;99.90;;;;;;5068328;28;20021;-85
2021/08/01 10:38:58;;;;;;;5.20;2.40;;;17.80;99.90;;;;;;5068936;28;20056;-85
2021/08/01 10:41:27;;;;;;;4.88;2.95;;;18.10;99.90;;;;;;5068311;28;20024;-85
2021/08/01 10:43:54;;;;;;;9.45;3.50;;;18.30;99.90;;;;;;5051835;28;20508;-86
2021/08/01 10:46:20;;;;;;;4.88;2.30;;;19.20;99.90;;;;;;5068929;28;20493;-85
2021/08/01 10:48:47;;;;;;;4.15;2.50;;;18.70;99.90;;;;;;5041732;28;20043;-85
2021/08/01 10:51:13;;;;;;;5.50;2.30;;;18.50;99.90;;;;;;5055581;28;20015;-85
2021/08/01 10:53:40;;;;;;;3.63;1.65;;;18.80;99.90;;;;;;5047145;28;20442;-85
2021/08/01 10:56:08;;;;;;;3.50;2.00;;;19.10;99.90;;;;;;5047949;28;20117;-85
2021/08/01 10:58:35;;;;;;;3.72;1.98;;;19.10;99.90;;;;;;5066903;28;20051;-85
2021/08/01 11:01:04;;;;;;;4.63;2.08;;;19.20;99.90;;;;;;5070523;28;20027;-85
2021/08/01 11:03:34;;;;;;;3.75;1.80;;;19.30;99.90;;;;;;5051225;28;20388;-85
2021/08/01 11:06:01;;;;;;;5.80;2.17;;;19.10;99.90;;;;;;5053440;28;20377;-84
2021/08/01 11:08:27;;;;;;;4.88;2.00;;;19.00;99.90;;;;;;5051568;28;20031;-84
2021/08/01 11:11:14;;;;;;;5.93;2.38;;;19.00;99.90;;;;;;5052633;28;20048;-85
2021/08/01 11:13:44;;;;;;;4.32;1.77;;;19.10;99.90;;;;;;5034349;28;20021;-85
2021/08/01 11:16:12;;;;;;;3.60;1.95;;;19.10;99.90;;;;;;5052675;28;20024;-85
2021/08/01 11:18:46;;;;;;;4.25;2.20;;;19.10;99.90;;;;;;5045145;28;20028;-85
2021/08/01 11:21:13;;;;;;;5.78;2.42;;;19.10;99.90;;;;;;5071325;28;20052;-85
2021/08/01 11:23:48;;;;;;;3.35;1.90;;;19.10;99.90;;;;;;5052140;28;20024;-85
2021/08/01 11:26:19;;;;;;;4.93;2.17;;;19.20;99.90;;;;;;5054499;28;20111;-84
2021/08/01 11:28:48;;;;;;;4.75;2.50;;;19.30;99.90;;;;;;5072105;28;20024;-86
2021/08/01 11:31:19;;;;;;;4.90;2.28;;;19.60;99.90;;;;;;5055122;28;20043;-85
2021/08/01 11:33:53;;;;;;;4.03;2.20;;;19.90;99.90;;;;;;5046586;28;20017;-85
2021/08/01 11:36:24;;;;;;;3.75;2.03;;;19.90;99.90;;;;;;5054423;28;20024;-85
2021/08/01 11:38:59;;;;;;;3.45;2.20;;;20.00;99.90;;;;;;5052257;28;20051;-85
2021/08/01 11:41:33;;;;;;;3.60;1.98;;;20.10;99.90;;;;;;5052165;28;20040;-84
2021/08/01 11:44:03;;;;;;;4.60;2.53;;;20.00;99.90;;;;;;5053749;28;20169;-85
2021/08/01 11:46:54;;;;;;;7.65;2.17;;;20.40;99.90;;;;;;5068995;28;20096;-84
2021/08/01 11:49:24;;;;;;;14.32;4.32;;;20.50;99.90;;;;;;5051455;28;20020;-84
2021/08/01 11:51:53;;;;;;;4.95;2.22;;;20.70;99.90;;;;;;5051933;28;20028;-85
2021/08/01 11:54:25;;;;;;;5.72;2.22;;;20.80;99.90;;;;;;5069803;28;20299;-84
2021/08/01 11:56:55;;;;;;;6.10;2.28;;;20.60;99.90;;;;;;5070724;28;20030;-85
2021/08/01 11:59:21;;;;;;;5.28;2.50;;;20.40;99.90;;;;;;5071078;28;20020;-84
2021/08/01 12:01:48;;;;;;;5.70;2.33;;;20.30;99.90;;;;;;5071262;28;20036;-85
2021/08/01 12:04:13;;;;;;;5.07;2.25;;;19.80;99.90;;;;;;5052867;28;20028;-84
2021/08/01 12:06:41;;;;;;;5.32;2.60;;;19.70;99.90;;;;;;5076369;28;20025;-84
2021/08/01 12:09:20;;;;;;;4.43;2.30;;;19.70;99.90;;;;;;5055691;28;20029;-84
2021/08/01 12:11:56;;;;;;;4.60;2.40;;;19.70;99.90;;;;;;5053741;28;20040;-84
2021/08/01 12:14:29;;;;;;;5.93;2.38;;;19.80;99.90;;;;;;5066730;28;20103;-84
2021/08/01 12:16:58;;;;;;;4.40;2.40;;;19.80;99.90;;;;;;5056284;28;20024;-84
2021/08/01 12:19:30;;;;;;;5.75;2.80;;;19.80;99.90;;;;;;5071738;28;20024;-85
2021/08/01 12:21:59;;;;;;;5.80;2.33;;;19.80;99.90;;;;;;5071815;28;20040;-83
2021/08/01 12:24:44;;;;;;;4.82;2.13;;;19.60;99.90;;;;;;5056145;28;20066;-83
2021/08/01 12:27:15;;;;;;;5.07;2.33;;;19.50;99.90;;;;;;5072635;28;20387;-84
2021/08/01 12:29:47;;;;;;;6.78;2.40;;;19.50;99.90;;;;;;5073059;28;20024;-85
2021/08/01 12:32:18;;;;;;;5.25;2.28;;;19.50;99.90;;;;;;5064886;28;20069;-85
2021/08/01 12:34:45;;;;;;;5.68;2.25;;;19.30;99.90;;;;;;5053758;28;20036;-85
2021/08/01 12:37:10;;;;;;;4.38;2.47;;;19.30;99.90;;;;;;5055222;28;20218;-85
2021/08/01 12:39:47;;;;;;;5.68;2.58;;;19.80;99.90;;;;;;5068206;28;20040;-84
2021/08/01 12:42:13;;;;;;;5.20;2.60;;;19.20;99.90;;;;;;5066362;28;20024;-84
2021/08/01 12:44:55;;;;;;;5.75;2.70;;;19.20;99.90;;;;;;5040121;28;20035;-85
2021/08/01 12:47:21;;;;;;;4.47;2.63;;;19.10;99.90;;;;;;5053855;28;20028;-86
2021/08/01 12:49:47;;;;;;;5.38;2.67;;;19.20;99.90;;;;;;5066957;28;20074;-85
2021/08/01 12:52:22;;;;;;;5.97;2.80;;;19.70;99.90;;;;;;5047061;28;20036;-85